Time;durP1;ratioP1;P1;durP2;ratioP2;P2;SDS_P1;SDS_P2;PMS_P1;PMS_P2;Temp;Humidity;BMP_temperature;BMP_pressure;BME280_temperature;BME280_humidity;BME280_pressure;Samples;Min_cycle;Max_cycle;Signal;HPM_P1;HPM_P2
2022/03/11 00:00:53;;;;;;;11.93;6.10;;;;;;;16.68;27.57;101835.09;5134221;27;20089;-71
2022/03/11 00:03:20;;;;;;;13.43;6.70;;;;;;;16.71;27.01;101844.72;5115427;27;20028;-71
2022/03/11 00:05:46;;;;;;;15.83;6.87;;;;;;;16.33;27.48;101844.53;5106284;27;20058;-71
2022/03/11 00:08:11;;;;;;;13.13;6.37;;;;;;;16.36;27.51;101838.31;5133641;27;20070;-71
2022/03/11 00:10:37;;;;;;;14.07;6.33;;;;;;;16.39;27.61;101836.50;5133455;27;20408;-71
2022/03/11 00:13:02;;;;;;;13.87;6.73;;;;;;;17.03;26.84;101830.88;5115976;27;20070;-71
2022/03/11 00:15:28;;;;;;;14.57;6.30;;;;;;;16.51;27.26;101832.75;5115110;27;20023;-71
2022/03/11 00:17:53;;;;;;;12.73;6.47;;;;;;;15.89;28.08;101832.97;5114909;27;20030;-71
2022/03/11 00:20:21;;;;;;;12.07;6.90;;;;;;;16.83;27.50;101836.56;5114974;27;20078;-71
2022/03/11 00:22:51;;;;;;;14.93;6.60;;;;;;;16.39;27.46;101840.91;5115634;27;20051;-71
2022/03/11 00:25:18;;;;;;;16.40;6.67;;;;;;;16.60;27.29;101829.09;5132680;27;20058;-71
2022/03/11 00:27:43;;;;;;;12.00;6.20;;;;;;;16.57;27.71;101831.81;5115747;27;20023;-71
2022/03/11 00:30:09;;;;;;;16.33;5.87;;;;;;;16.26;27.72;101825.28;5114704;27;20029;-71
2022/03/11 00:32:35;;;;;;;15.93;6.50;;;;;;;16.48;27.61;101821.41;5133286;27;20037;-71
2022/03/11 00:35:01;;;;;;;12.70;6.07;;;;;;;16.58;27.46;101812.41;5114502;27;20023;-71
2022/03/11 00:37:26;;;;;;;15.97;6.50;;;;;;;16.29;27.57;101811.19;5115341;27;20043;-71
2022/03/11 00:39:52;;;;;;;15.50;6.63;;;;;;;16.87;27.21;101808.31;5132422;27;20441;-70
2022/03/11 00:42:17;;;;;;;12.83;6.83;;;;;;;16.07;27.82;101815.97;5115029;27;20099;-71
2022/03/11 00:44:43;;;;;;;13.67;7.03;;;;;;;16.84;27.64;101798.66;5114764;27;20011;-71
2022/03/11 00:47:09;;;;;;;17.07;7.20;;;;;;;15.59;28.67;101814.09;5114091;27;20478;-70
2022/03/11 00:49:35;;;;;;;15.90;6.77;;;;;;;16.10;28.57;101816.81;5114635;27;20075;-71
2022/03/11 00:52:01;;;;;;;13.90;5.97;;;;;;;15.27;28.88;101807.53;5114941;27;20019;-71
2022/03/11 00:54:26;;;;;;;15.43;6.23;;;;;;;15.55;28.90;101808.00;5114648;27;20019;-71
2022/03/11 00:56:52;;;;;;;13.00;6.70;;;;;;;15.87;28.35;101803.16;5113743;27;20432;-71
2022/03/11 00:59:17;;;;;;;14.17;5.87;;;;;;;16.13;27.80;101804.44;5132989;27;20023;-71
2022/03/11 01:01:42;;;;;;;13.97;6.47;;;;;;;16.06;27.68;101804.56;5114373;27;20442;-71
2022/03/11 01:04:08;;;;;;;14.13;6.53;;;;;;;15.88;28.12;101803.13;5132740;27;20038;-71
2022/03/11 01:06:33;;;;;;;15.27;7.23;;;;;;;15.56;29.03;101793.06;5112157;27;20023;-71
2022/03/11 01:08:58;;;;;;;13.50;6.30;;;;;;;15.73;28.90;101791.03;5132260;27;20375;-71
2022/03/11 01:11:24;;;;;;;15.97;6.70;;;;;;;16.06;27.66;101790.50;5113934;27;20033;-71
2022/03/11 01:13:49;;;;;;;15.83;6.30;;;;;;;15.54;28.67;101784.31;5114621;27;20031;-71
2022/03/11 01:16:15;;;;;;;12.60;6.10;;;;;;;15.55;28.33;101780.78;5114390;27;20019;-71
2022/03/11 01:18:40;;;;;;;16.87;6.40;;;;;;;15.65;28.52;101771.84;5114473;27;20026;-70
2022/03/11 01:21:05;;;;;;;16.97;7.47;;;;;;;15.91;28.24;101773.22;5130657;27;20037;-71
2022/03/11 01:23:31;;;;;;;14.27;6.30;;;;;;;15.59;28.39;101772.81;5097688;28;20044;-71
2022/03/11 01:25:56;;;;;;;14.67;7.07;;;;;;;14.86;29.66;101764.22;5122784;27;20031;-71
2022/03/11 01:28:21;;;;;;;19.90;7.73;;;;;;;15.56;28.52;101758.81;5113721;27;20019;-71
2022/03/11 01:30:47;;;;;;;14.53;7.03;;;;;;;15.81;28.32;101763.69;5132626;27;20047;-71
2022/03/11 01:33:12;;;;;;;12.53;6.37;;;;;;;16.04;27.68;101755.38;5113406;27;20084;-71
2022/03/11 01:35:38;;;;;;;18.27;6.30;;;;;;;15.71;28.49;101750.63;5131599;27;20031;-71
2022/03/11 01:38:03;;;;;;;15.13;6.60;;;;;;;15.73;28.19;101748.88;5113740;27;20046;-71
2022/03/11 01:40:28;;;;;;;17.47;7.27;;;;;;;15.92;27.97;101748.56;5131172;27;20454;-71
2022/03/11 01:42:54;;;;;;;13.37;6.27;;;;;;;15.06;29.05;101741.09;5131534;27;20039;-71
2022/03/11 01:45:19;;;;;;;14.10;6.43;;;;;;;15.86;28.27;101743.41;5132062;27;20112;-71
2022/03/11 01:47:44;;;;;;;13.80;6.27;;;;;;;15.39;28.38;101733.59;5114076;27;20031;-71
2022/03/11 01:50:10;;;;;;;14.37;7.17;;;;;;;15.60;28.51;101726.25;5130922;27;20053;-71
2022/03/11 01:52:37;;;;;;;13.20;6.67;;;;;;;15.49;28.67;101728.19;5113745;27;20022;-71
2022/03/11 01:55:04;;;;;;;14.43;6.47;;;;;;;15.57;29.14;101721.03;5113813;27;20019;-71
2022/03/11 01:57:34;;;;;;;14.47;6.37;;;;;;;15.29;28.86;101721.47;5112985;27;20497;-71
2022/03/11 01:59:59;;;;;;;14.43;7.17;;;;;;;14.39;30.19;101722.63;5131514;27;20440;-71
2022/03/11 02:02:25;;;;;;;11.50;5.87;;;;;;;14.72;29.79;101719.66;5100018;28;20035;-70
2022/03/11 02:04:50;;;;;;;13.40;6.53;;;;;;;14.79;29.49;101720.44;5110815;28;20030;-71
2022/03/11 02:07:15;;;;;;;11.80;5.57;;;;;;;14.92;29.78;101711.50;5130895;27;20027;-71
2022/03/11 02:09:41;;;;;;;16.53;6.60;;;;;;;14.98;29.40;101710.53;5093613;28;20501;-71
2022/03/11 02:12:07;;;;;;;14.13;6.23;;;;;;;15.54;28.64;101700.00;5109727;27;20026;-71
2022/03/11 02:14:33;;;;;;;11.87;6.63;;;;;;;15.22;28.83;101701.38;5113124;27;20160;-71
2022/03/11 02:16:58;;;;;;;14.80;6.40;;;;;;;14.85;29.51;101704.56;5111970;27;20059;-71
2022/03/11 02:19:24;;;;;;;17.80;6.53;;;;;;;15.35;28.92;101697.66;5112907;27;20646;-71
2022/03/11 02:21:53;;;;;;;15.20;7.07;;;;;;;15.17;28.98;101701.47;5106367;28;20023;-71
2022/03/11 02:24:19;;;;;;;14.97;6.50;;;;;;;14.87;29.59;101697.53;5088726;28;20612;-71
2022/03/11 02:26:45;;;;;;;13.57;6.33;;;;;;;14.97;29.40;101698.25;5103973;28;20024;-71
2022/03/11 02:29:11;;;;;;;18.53;7.53;;;;;;;15.14;29.00;101690.97;5109342;28;20070;-71
2022/03/11 02:31:37;;;;;;;16.73;6.43;;;;;;;14.68;29.74;101674.06;5108387;28;20479;-71
2022/03/11 02:34:04;;;;;;;16.17;6.53;;;;;;;15.07;28.61;101673.50;5109445;28;20031;-71
2022/03/11 02:36:30;;;;;;;14.77;7.07;;;;;;;13.79;30.51;101685.63;5109766;28;20115;-71
2022/03/11 02:38:56;;;;;;;14.10;6.47;;;;;;;14.74;29.30;101665.22;5108455;28;20028;-71
2022/03/11 02:41:21;;;;;;;12.50;5.97;;;;;;;14.52;29.18;101672.50;5108922;28;20043;-71
2022/03/11 02:43:47;;;;;;;15.93;6.70;;;;;;;14.55;29.30;101672.50;5109709;28;20023;-71
2022/03/11 02:46:14;;;;;;;15.43;6.03;;;;;;;15.05;29.17;101667.41;5108530;28;20023;-71
2022/03/11 02:48:39;;;;;;;13.87;6.70;;;;;;;15.06;28.81;101666.53;5109204;28;20464;-71
2022/03/11 02:51:05;;;;;;;15.23;7.03;;;;;;;14.60;29.68;101662.75;5108970;28;20023;-71
2022/03/11 02:53:31;;;;;;;14.07;7.00;;;;;;;14.53;29.69;101671.63;5107690;28;20020;-71
2022/03/11 02:55:58;;;;;;;13.77;6.47;;;;;;;14.75;29.08;101667.88;5108985;28;20110;-71
2022/03/11 02:58:23;;;;;;;14.27;6.60;;;;;;;14.78;29.06;101656.38;5108856;28;20041;-71
2022/03/11 03:00:49;;;;;;;15.20;6.90;;;;;;;14.28;30.13;101666.69;5108523;28;20024;-71
2022/03/11 03:03:14;;;;;;;14.53;6.40;;;;;;;14.53;30.30;101661.09;5108138;28;20023;-71
2022/03/11 03:05:40;;;;;;;12.77;6.27;;;;;;;14.16;30.14;101661.56;5109471;28;20123;-71
2022/03/11 03:08:05;;;;;;;13.27;6.23;;;;;;;14.81;29.46;101661.63;5107977;28;20024;-71
2022/03/11 03:10:31;;;;;;;11.43;6.07;;;;;;;15.04;28.81;101657.78;5109128;28;20183;-71
2022/03/11 03:12:56;;;;;;;14.40;6.57;;;;;;;14.82;28.63;101651.97;5110347;28;20031;-70
2022/03/11 03:15:22;;;;;;;17.40;6.40;;;;;;;15.55;27.93;101659.56;5087507;28;20028;-71
2022/03/11 03:17:47;;;;;;;15.30;6.67;;;;;;;14.96;29.41;101644.75;5103627;28;20042;-71
2022/03/11 03:20:13;;;;;;;18.93;6.60;;;;;;;14.97;28.65;101646.47;5108615;28;20042;-71
2022/03/11 03:22:39;;;;;;;15.87;6.43;;;;;;;14.59;29.14;101653.16;5110511;28;20084;-70
2022/03/11 03:25:09;;;;;;;16.13;6.80;;;;;;;14.81;29.10;101650.22;5125766;28;20134;-71
2022/03/11 03:27:35;;;;;;;14.50;5.77;;;;;;;13.21;31.17;101656.31;5112214;28;20234;-71
2022/03/11 03:30:00;;;;;;;14.13;6.40;;;;;;;15.38;28.34;101642.28;5112501;28;20526;-71
2022/03/11 03:32:25;;;;;;;14.43;6.93;;;;;;;14.67;28.80;101645.16;5130739;28;20027;-71
2022/03/11 03:34:54;;;;;;;15.20;6.60;;;;;;;15.08;28.38;101644.56;5111369;28;20057;-71
2022/03/11 03:37:19;;;;;;;14.47;6.83;;;;;;;14.91;28.71;101639.53;5112215;28;20130;-71
2022/03/11 03:39:44;;;;;;;14.00;7.03;;;;;;;15.10;28.39;101640.13;5112365;28;20545;-71
2022/03/11 03:42:10;;;;;;;13.20;6.43;;;;;;;14.07;29.90;101647.63;5129195;28;20469;-71
2022/03/11 03:44:35;;;;;;;14.37;6.93;;;;;;;14.60;29.31;101636.44;5112417;28;20611;-71
2022/03/11 03:47:01;;;;;;;20.10;6.60;;;;;;;15.10;28.21;101636.63;5111811;27;20114;-71
2022/03/11 03:49:28;;;;;;;15.50;7.17;;;;;;;15.06;28.62;101627.91;5111677;28;20015;-71
2022/03/11 03:51:54;;;;;;;13.40;6.70;;;;;;;14.04;29.74;101637.16;5130143;28;20015;-71
2022/03/11 03:54:19;;;;;;;15.57;6.07;;;;;;;13.67;30.66;101640.19;5111900;28;20030;-71
2022/03/11 03:56:45;;;;;;;13.47;7.03;;;;;;;14.26;29.79;101636.91;5111728;28;20072;-71
2022/03/11 03:59:13;;;;;;;11.83;5.97;;;;;;;14.35;29.84;101631.53;5130055;28;20405;-71
2022/03/11 04:01:40;;;;;;;17.07;6.00;;;;;;;13.80;30.21;101627.78;5112354;28;20118;-71
2022/03/11 04:04:06;;;;;;;14.63;6.63;;;;;;;13.76;30.04;101630.47;5131473;27;20383;-71
2022/03/11 04:06:37;;;;;;;13.93;7.33;;;;;;;13.37;31.09;101629.09;5115742;27;20058;-71
2022/03/11 04:09:07;;;;;;;16.63;6.40;;;;;;;14.33;29.41;101617.53;5115561;27;20034;-71
2022/03/11 04:11:33;;;;;;;16.03;6.57;;;;;;;14.12;29.59;101620.44;5133475;27;20554;-71
2022/03/11 04:13:59;;;;;;;18.77;6.63;;;;;;;13.83;30.29;101616.38;5134365;27;20097;-71
2022/03/11 04:16:25;;;;;;;15.73;6.37;;;;;;;14.49;29.74;101612.06;5133161;27;20034;-71
2022/03/11 04:18:51;;;;;;;14.60;6.83;;;;;;;13.86;30.52;101606.72;5133605;27;20027;-71
2022/03/11 04:21:18;;;;;;;13.07;7.13;;;;;;;14.82;28.78;101604.59;5133260;27;20023;-71
2022/03/11 04:23:44;;;;;;;13.43;5.93;;;;;;;13.64;30.43;101615.69;5114771;27;20043;-71
2022/03/11 04:26:10;;;;;;;13.10;6.27;;;;;;;13.42;30.45;101613.28;5114482;27;20470;-71
2022/03/11 04:28:37;;;;;;;16.40;6.97;;;;;;;14.05;29.89;101604.75;5115746;27;20054;-71
2022/03/11 04:31:13;;;;;;;12.83;6.43;;;;;;;13.62;30.60;101606.97;5114143;27;20030;-71
2022/03/11 04:33:40;;;;;;;14.53;6.90;;;;;;;14.49;29.61;101596.28;5115669;27;20034;-71
2022/03/11 04:36:07;;;;;;;13.50;6.10;;;;;;;14.00;30.17;101590.78;5132969;27;20034;-71
2022/03/11 04:38:33;;;;;;;11.93;6.33;;;;;;;13.94;30.34;101598.72;5133615;27;20019;-71
2022/03/11 04:40:59;;;;;;;15.90;6.43;;;;;;;14.01;29.65;101596.91;5114314;27;20401;-71
2022/03/11 04:43:25;;;;;;;17.50;6.80;;;;;;;13.44;30.79;101597.53;5133561;27;20092;-71
2022/03/11 04:45:51;;;;;;;15.30;7.33;;;;;;;13.72;30.62;101591.09;5132425;27;20489;-70
2022/03/11 04:48:17;;;;;;;13.03;6.83;;;;;;;13.21;31.72;101583.69;5115164;27;20462;-71
2022/03/11 04:50:42;;;;;;;14.63;7.03;;;;;;;13.56;30.75;101586.91;5132936;27;20068;-71
2022/03/11 04:53:08;;;;;;;16.30;7.73;;;;;;;12.73;32.09;101588.44;5132334;27;20083;-70
2022/03/11 04:55:33;;;;;;;14.97;6.33;;;;;;;13.79;30.16;101588.41;5133289;27;20045;-71
2022/03/11 04:57:58;;;;;;;14.93;6.40;;;;;;;13.26;31.19;101601.16;5115125;27;20023;-71
2022/03/11 05:00:25;;;;;;;18.23;7.00;;;;;;;14.30;29.86;101578.13;5113875;27;20096;-71
2022/03/11 05:02:54;;;;;;;15.00;7.57;;;;;;;13.90;30.05;101582.16;5133386;27;20346;-71
2022/03/11 05:05:21;;;;;;;14.33;6.97;;;;;;;13.56;30.62;101584.28;5114242;27;20470;-71
2022/03/11 05:07:47;;;;;;;16.27;6.70;;;;;;;14.24;29.87;101576.44;5133504;27;20382;-71
2022/03/11 05:10:16;;;;;;;18.17;8.13;;;;;;;13.78;30.46;101570.88;5114212;27;20114;-71
2022/03/11 05:12:42;;;;;;;17.57;6.80;;;;;;;13.11;31.56;101583.81;5114150;27;20051;-71
2022/03/11 05:15:09;;;;;;;16.30;7.17;;;;;;;13.44;31.22;101571.28;5130484;27;20031;-71
2022/03/11 05:17:35;;;;;;;13.37;6.73;;;;;;;13.48;30.71;101573.84;5114976;27;20026;-71
2022/03/11 05:20:01;;;;;;;14.13;6.87;;;;;;;13.95;29.94;101566.31;5113423;27;20023;-71
2022/03/11 05:22:27;;;;;;;15.80;6.50;;;;;;;13.01;31.18;101573.38;5132489;27;20031;-71
2022/03/11 05:24:52;;;;;;;16.17;7.47;;;;;;;13.49;31.13;101577.31;5114221;27;20546;-71
2022/03/11 05:27:18;;;;;;;15.83;7.87;;;;;;;13.73;30.75;101574.44;5113506;27;20031;-70
2022/03/11 05:29:43;;;;;;;14.63;6.90;;;;;;;13.80;30.07;101579.63;5133336;27;20027;-71
2022/03/11 05:32:10;;;;;;;14.80;6.60;;;;;;;14.00;29.98;101567.13;5113264;27;20034;-70
2022/03/11 05:34:39;;;;;;;12.90;6.30;;;;;;;13.27;31.26;101574.91;5132176;27;20027;-71
2022/03/11 05:37:06;;;;;;;16.13;7.07;;;;;;;13.01;31.09;101573.38;5128023;27;20035;-71
2022/03/11 05:39:32;;;;;;;13.53;6.10;;;;;;;12.99;31.73;101579.50;5114543;27;20420;-71
2022/03/11 05:41:58;;;;;;;14.97;7.27;;;;;;;13.26;31.33;101581.03;5112694;27;20471;-71
2022/03/11 05:44:23;;;;;;;15.83;7.07;;;;;;;14.17;29.73;101566.91;5132532;27;20027;-71
2022/03/11 05:46:49;;;;;;;16.07;6.77;;;;;;;13.55;30.97;101577.28;5113235;27;20035;-71
2022/03/11 05:49:14;;;;;;;16.23;7.60;;;;;;;13.66;30.33;101566.66;5131108;27;20035;-71
2022/03/11 05:51:40;;;;;;;14.53;6.43;;;;;;;13.34;30.70;101573.94;5113508;27;20031;-71
2022/03/11 05:54:05;;;;;;;14.70;6.60;;;;;;;13.38;31.14;101577.44;5113810;27;20079;-70
2022/03/11 05:56:31;;;;;;;12.77;6.07;;;;;;;14.20;29.51;101564.22;5112950;27;20038;-71
2022/03/11 05:58:57;;;;;;;16.27;6.53;;;;;;;13.12;30.89;101575.03;5132161;27;20050;-71
2022/03/11 06:01:22;;;;;;;14.17;6.47;;;;;;;13.68;30.39;101570.13;5131438;27;20027;-71
2022/03/11 06:03:48;;;;;;;15.40;6.80;;;;;;;13.01;31.68;101576.00;5131248;27;20027;-71
2022/03/11 06:06:14;;;;;;;11.13;5.90;;;;;;;13.88;30.04;101567.28;5112999;27;20031;-71
2022/03/11 06:08:39;;;;;;;14.70;6.47;;;;;;;13.77;30.70;101559.53;5132475;27;20023;-71
2022/03/11 06:11:05;;;;;;;14.17;6.30;;;;;;;13.17;31.43;101568.84;5111651;27;20042;-70
2022/03/11 06:13:30;;;;;;;15.97;6.47;;;;;;;14.10;29.86;101553.88;5132470;27;20027;-71
2022/03/11 06:15:56;;;;;;;11.63;6.30;;;;;;;12.76;32.01;101561.31;5113197;27;20027;-71
2022/03/11 06:18:21;;;;;;;13.93;6.10;;;;;;;13.79;30.37;101556.88;5112307;27;20112;-71
2022/03/11 06:20:46;;;;;;;14.57;6.93;;;;;;;13.04;31.45;101557.59;5106358;27;20023;-71
2022/03/11 06:23:13;;;;;;;12.97;6.13;;;;;;;13.96;30.15;101554.91;5130525;27;20390;-71
2022/03/11 06:25:38;;;;;;;18.17;6.30;;;;;;;12.86;31.41;101557.75;5131620;27;20023;-71
2022/03/11 06:28:07;;;;;;;12.87;6.20;;;;;;;13.45;31.10;101544.09;5131862;27;20034;-71
2022/03/11 06:30:32;;;;;;;15.03;6.13;;;;;;;14.05;29.82;101549.53;5112107;27;20471;-70
2022/03/11 06:32:57;;;;;;;15.80;6.87;;;;;;;14.14;29.79;101547.69;5113083;27;20030;-71
2022/03/11 06:35:23;;;;;;;15.27;6.70;;;;;;;13.61;30.82;101544.81;5095644;27;20027;-71
2022/03/11 06:37:52;;;;;;;12.23;5.87;;;;;;;14.31;29.53;101550.94;5131252;27;20614;-71
2022/03/11 06:40:18;;;;;;;13.50;5.77;;;;;;;13.63;30.63;101546.53;5112485;27;20027;-71
2022/03/11 06:42:46;;;;;;;13.37;6.03;;;;;;;14.23;29.86;101548.44;5112066;27;20042;-71
2022/03/11 06:45:13;;;;;;;12.10;5.53;;;;;;;13.36;30.81;101553.81;5111973;28;20197;-70
2022/03/11 06:47:39;;;;;;;14.57;6.00;;;;;;;14.63;29.49;101548.75;5110449;27;20019;-71
2022/03/11 06:50:06;;;;;;;14.47;6.37;;;;;;;14.33;29.50;101543.91;5130834;27;20121;-71
2022/03/11 06:52:32;;;;;;;17.77;5.87;;;;;;;14.23;29.72;101543.16;5130851;27;20033;-71
2022/03/11 06:54:57;;;;;;;13.80;6.13;;;;;;;12.94;31.75;101550.69;5131492;27;20023;-70
2022/03/11 06:57:23;;;;;;;15.37;5.80;;;;;;;14.40;29.33;101537.66;5130962;27;20497;-71
2022/03/11 06:59:49;;;;;;;11.27;6.30;;;;;;;14.18;30.21;101541.50;5111965;28;20031;-71
2022/03/11 07:02:15;;;;;;;12.37;6.33;;;;;;;12.92;31.96;101556.84;5110474;28;20134;-71
2022/03/11 07:04:41;;;;;;;16.57;6.63;;;;;;;14.23;30.26;101537.00;5095927;28;20035;-71
2022/03/11 07:07:07;;;;;;;11.93;6.30;;;;;;;14.53;29.24;101534.84;5111425;28;20027;-71
2022/03/11 07:09:33;;;;;;;13.77;6.10;;;;;;;14.83;29.34;101528.25;5131383;28;20023;-71
2022/03/11 07:12:01;;;;;;;11.80;6.13;;;;;;;14.98;29.14;101527.13;5112257;28;20037;-71
2022/03/11 07:14:27;;;;;;;14.90;6.00;;;;;;;15.63;28.38;101522.41;5110653;28;20035;-71
2022/03/11 07:16:56;;;;;;;14.90;5.73;;;;;;;15.02;29.15;101534.06;5111843;28;20023;-70
2022/03/11 07:19:24;;;;;;;11.73;5.47;;;;;;;14.51;29.82;101531.38;5130337;28;20117;-71
2022/03/11 07:21:50;;;;;;;12.00;5.63;;;;;;;14.38;30.03;101530.66;5109642;28;20034;-71
2022/03/11 07:24:15;;;;;;;13.13;5.93;;;;;;;13.96;31.05;101531.25;5106450;28;20047;-71
2022/03/11 07:26:40;;;;;;;12.83;6.23;;;;;;;14.95;29.55;101532.44;5111422;28;20079;-71
2022/03/11 07:29:06;;;;;;;14.73;6.50;;;;;;;14.06;30.33;101540.75;5104967;28;20565;-71
2022/03/11 07:31:33;;;;;;;11.20;5.60;;;;;;;14.41;30.04;101528.00;5130676;28;21767;-71
2022/03/11 07:33:58;;;;;;;14.70;6.17;;;;;;;14.16;30.51;101538.00;5130039;28;20084;-71
2022/03/11 07:36:25;;;;;;;13.80;6.00;;;;;;;14.03;30.41;101524.16;5112043;28;20194;-71
2022/03/11 07:38:50;;;;;;;12.83;5.33;;;;;;;13.20;31.36;101525.94;5114804;27;20070;-71
2022/03/11 07:41:16;;;;;;;12.13;5.43;;;;;;;15.10;28.91;101512.88;5107774;28;20058;-71
2022/03/11 07:43:44;;;;;;;11.67;5.47;;;;;;;13.65;30.36;101522.88;5108637;27;20118;-71
2022/03/11 07:46:10;;;;;;;11.93;5.80;;;;;;;15.74;28.09;101505.50;5115614;27;21501;-71
2022/03/11 07:48:36;;;;;;;13.23;5.83;;;;;;;15.47;27.89;101524.47;5115033;27;20027;-71
2022/03/11 07:51:02;;;;;;;12.73;6.37;;;;;;;16.63;26.93;101514.94;5134179;27;20023;-71
2022/03/11 07:53:27;;;;;;;11.63;5.47;;;;;;;17.11;25.82;101501.41;5116531;27;20039;-71
2022/03/11 07:55:53;;;;;;;10.70;5.57;;;;;;;16.20;27.02;101515.97;5115841;27;20027;-71
2022/03/11 07:58:21;;;;;;;12.20;5.50;;;;;;;19.43;22.90;101499.50;5134598;27;20031;-71
2022/03/11 08:00:48;;;;;;;13.33;5.60;;;;;;;18.71;23.80;101502.88;5116257;27;20114;-71
2022/03/11 08:03:14;;;;;;;15.73;5.97;;;;;;;16.71;26.09;101505.06;5114812;27;20030;-71
2022/03/11 08:05:39;;;;;;;12.57;6.03;;;;;;;16.13;26.70;101503.81;5116498;27;20027;-71
2022/03/11 08:08:05;;;;;;;12.00;5.87;;;;;;;16.15;27.03;101512.56;5112323;28;20051;-71
2022/03/11 08:10:33;;;;;;;14.27;6.53;;;;;;;16.80;26.32;101506.59;5096914;27;20491;-71
2022/03/11 08:12:59;;;;;;;15.03;6.27;;;;;;;15.14;28.87;101505.78;5131676;27;20023;-71
2022/03/11 08:15:24;;;;;;;12.10;5.87;;;;;;;14.79;29.37;101509.91;5115503;27;20050;-71
2022/03/11 08:17:50;;;;;;;12.93;5.77;;;;;;;14.90;29.59;101486.91;5115211;27;20470;-71
2022/03/11 08:20:15;;;;;;;11.83;5.90;;;;;;;15.90;28.41;101482.31;5115235;27;20031;-71
2022/03/11 08:22:41;;;;;;;14.13;6.80;;;;;;;15.99;28.09;101481.28;5133992;27;20076;-70
2022/03/11 08:25:08;;;;;;;19.60;5.97;;;;;;;15.90;28.68;101473.56;5133318;27;20055;-71
2022/03/11 08:27:34;;;;;;;12.63;5.97;;;;;;;15.47;29.27;101477.06;5134519;27;20031;-71
2022/03/11 08:29:59;;;;;;;11.47;5.60;;;;;;;15.93;28.31;101476.97;5115099;27;20042;-70
2022/03/11 08:32:25;;;;;;;14.50;6.47;;;;;;;16.98;27.35;101478.91;5134263;27;20031;-71
2022/03/11 08:34:50;;;;;;;12.43;6.53;;;;;;;16.56;27.26;101487.84;5133674;27;20027;-71
2022/03/11 08:37:16;;;;;;;14.97;6.90;;;;;;;16.31;27.59;101484.94;5114369;27;20047;-71
2022/03/11 08:39:41;;;;;;;15.17;6.33;;;;;;;15.84;28.10;101486.84;5115598;27;20500;-71
2022/03/11 08:42:06;;;;;;;13.90;6.27;;;;;;;16.08;28.33;101481.03;5115403;27;20030;-70
2022/03/11 08:44:32;;;;;;;13.27;6.53;;;;;;;15.22;29.07;101472.25;5115160;27;20524;-70
2022/03/11 08:46:57;;;;;;;15.10;5.80;;;;;;;16.35;27.67;101483.06;5133428;27;20023;-70
2022/03/11 08:49:23;;;;;;;11.63;4.80;;;;;;;15.30;28.97;101485.31;5114279;28;20034;-70
2022/03/11 08:51:48;;;;;;;12.53;6.80;;;;;;;16.47;27.99;101476.63;5114373;27;20019;-70
2022/03/11 08:54:13;;;;;;;12.20;5.57;;;;;;;16.70;27.22;101465.50;5133379;27;20065;-70
2022/03/11 08:56:40;;;;;;;14.10;5.57;;;;;;;16.97;27.65;101456.03;5133566;27;20023;-70
2022/03/11 08:59:05;;;;;;;11.97;6.13;;;;;;;16.89;27.09;101458.03;5132400;27;20023;-70
2022/03/11 09:01:30;;;;;;;15.70;6.13;;;;;;;17.46;26.37;101454.66;5115632;27;20026;-70
2022/03/11 09:03:56;;;;;;;17.53;6.60;;;;;;;17.61;26.23;101457.75;5133564;27;20055;-70
2022/03/11 09:06:22;;;;;;;15.97;6.80;;;;;;;18.04;25.81;101450.31;5113389;27;20072;-71
2022/03/11 09:08:47;;;;;;;13.27;5.80;;;;;;;17.55;26.37;101447.38;5105960;27;20027;-71
2022/03/11 09:11:13;;;;;;;17.67;7.40;;;;;;;16.63;27.51;101456.88;5114834;27;20019;-71
2022/03/11 09:13:38;;;;;;;13.70;6.27;;;;;;;17.44;26.48;101439.78;5113657;27;20026;-71
2022/03/11 09:16:04;;;;;;;14.23;6.43;;;;;;;18.04;26.36;101435.34;5113466;27;20076;-71
2022/03/11 09:18:29;;;;;;;13.00;6.53;;;;;;;18.23;25.65;101438.28;5120078;27;20472;-71
2022/03/11 09:20:55;;;;;;;15.30;6.23;;;;;;;17.85;26.09;101436.81;5112612;27;20118;-71
2022/03/11 09:23:21;;;;;;;12.53;6.50;;;;;;;18.17;26.05;101429.66;5132912;27;20144;-71
2022/03/11 09:25:47;;;;;;;15.70;7.00;;;;;;;19.15;24.72;101426.31;5113410;27;20110;-71
2022/03/11 09:28:12;;;;;;;14.87;6.27;;;;;;;20.64;22.92;101409.84;5110836;27;20022;-71
2022/03/11 09:30:38;;;;;;;15.00;6.60;;;;;;;21.74;22.03;101411.13;5114369;27;20489;-70
2022/03/11 09:33:03;;;;;;;13.13;6.10;;;;;;;20.66;22.65;101407.97;5112885;27;20019;-70
2022/03/11 09:35:28;;;;;;;19.00;6.80;;;;;;;19.93;23.49;101424.25;5114417;27;20019;-70
2022/03/11 09:37:54;;;;;;;14.75;6.70;;;;;;;20.54;22.27;101393.47;5096395;27;20031;-71
2022/03/11 09:40:19;;;;;;;15.63;6.18;;;;;;;19.85;23.80;101409.56;5098557;28;20023;-70
2022/03/11 09:42:45;;;;;;;14.18;6.90;;;;;;;22.09;22.12;101405.91;5096885;27;20019;-70
2022/03/11 09:45:11;;;;;;;19.30;6.80;;;;;;;21.58;21.92;101404.81;5131135;27;20023;-71
2022/03/11 09:47:41;;;;;;;13.98;7.30;;;;;;;22.63;21.08;101408.53;5112995;27;20143;-71
2022/03/11 09:50:07;;;;;;;15.50;7.18;;;;;;;21.66;21.50;101403.50;5112517;27;20015;-70
2022/03/11 09:52:36;;;;;;;11.13;6.28;;;;;;;22.19;21.42;101399.19;5114093;27;20031;-71
2022/03/11 09:55:01;;;;;;;15.38;6.85;;;;;;;21.67;22.46;101401.72;5113120;27;20069;-70
2022/03/11 09:57:27;;;;;;;11.45;6.68;;;;;;;21.58;21.95;101392.38;5113048;27;20054;-70
2022/03/11 09:59:53;;;;;;;13.98;6.13;;;;;;;20.83;22.89;101394.03;5113176;27;20019;-71
2022/03/11 10:02:18;;;;;;;13.82;6.53;;;;;;;20.83;23.06;101392.22;5112804;27;20470;-71
2022/03/11 10:04:49;;;;;;;13.63;6.80;;;;;;;21.41;22.66;101393.16;5132466;27;20119;-71
2022/03/11 10:07:28;;;;;;;12.60;6.70;;;;;;;23.80;20.05;101385.38;5131791;27;20023;-71
2022/03/11 10:09:55;;;;;;;15.73;6.53;;;;;;;23.23;20.46;101379.69;5124180;27;20019;-70
2022/03/11 10:12:26;;;;;;;13.55;7.45;;;;;;;22.17;21.75;101387.75;5131850;27;20030;-70
2022/03/11 10:14:59;;;;;;;10.68;6.18;;;;;;;22.55;21.45;101383.25;5131107;27;20019;-70
2022/03/11 10:17:25;;;;;;;13.30;6.57;;;;;;;21.12;23.42;101374.09;5130816;27;20403;-70
2022/03/11 10:19:55;;;;;;;12.20;6.90;;;;;;;22.79;21.76;101365.97;5131070;27;20023;-70
2022/03/11 10:22:24;;;;;;;11.30;6.00;;;;;;;21.83;22.95;101381.44;5112810;27;20359;-70
2022/03/11 10:24:50;;;;;;;10.98;6.95;;;;;;;22.41;22.35;101376.81;5112378;27;20440;-71
2022/03/11 10:27:15;;;;;;;13.27;6.20;;;;;;;22.73;21.96;101371.63;5131733;27;20071;-71
2022/03/11 10:29:40;;;;;;;18.17;6.38;;;;;;;23.39;21.24;101353.88;5131065;27;20071;-70
2022/03/11 10:32:07;;;;;;;18.00;6.95;;;;;;;20.92;24.23;101366.16;5112846;27;20153;-71
2022/03/11 10:34:34;;;;;;;14.05;6.32;;;;;;;21.55;23.62;101370.41;5095136;27;20028;-70
2022/03/11 10:37:06;;;;;;;12.93;7.05;;;;;;;23.23;21.31;101363.69;5112573;27;20118;-70
2022/03/11 10:39:39;;;;;;;17.05;6.90;;;;;;;22.27;22.63;101360.66;5112706;27;20486;-70
2022/03/11 10:42:23;;;;;;;12.50;6.15;;;;;;;22.63;22.16;101362.41;5113153;27;20019;-70
2022/03/11 10:45:05;;;;;;;14.30;6.53;;;;;;;22.77;22.06;101346.53;5112500;27;20031;-70
2022/03/11 10:47:34;;;;;;;10.38;6.65;;;;;;;22.39;22.58;101353.88;5110831;27;20466;-70
2022/03/11 10:50:07;;;;;;;13.55;7.20;;;;;;;24.12;21.22;101353.28;5127244;27;20031;-70
2022/03/11 10:52:37;;;;;;;11.30;6.45;;;;;;;23.63;21.66;101356.09;5084292;28;20068;-70
2022/03/11 10:55:23;;;;;;;13.18;6.32;;;;;;;22.13;23.02;101354.25;5127123;27;20035;-70
2022/03/11 10:57:53;;;;;;;14.82;6.85;;;;;;;22.70;22.15;101345.16;5112206;27;20424;-70
2022/03/11 11:00:25;;;;;;;17.65;7.75;;;;;;;23.59;21.66;101344.75;5129844;27;20535;-70
2022/03/11 11:02:53;;;;;;;19.10;7.00;;;;;;;24.01;20.80;101337.06;5111753;28;20019;-70
2022/03/11 11:05:19;;;;;;;12.20;7.07;;;;;;;22.24;22.89;101342.16;5130704;28;20070;-70
2022/03/11 11:07:46;;;;;;;13.32;6.88;;;;;;;21.83;23.13;101333.53;5130633;28;20420;-70
2022/03/11 11:10:15;;;;;;;13.77;7.22;;;;;;;24.36;20.65;101326.09;5103659;28;20563;-71
2022/03/11 11:12:41;;;;;;;11.48;6.85;;;;;;;23.19;21.74;101330.97;5130810;27;20390;-70